world map with BEF marked

BEF - Airport

This information may not be accurate or current and is not valid for navigation or flight planning. No warranty of fitness for any purpose is made or implied.

flag of Atlántico Surflag of Nicaragua

Donate via PayPal

Additional information is available on the NEW Great Circle Mapper

Location
City:  Bluefields, Atlántico Sur, Nicaragua
ICAO / IATA:MNBL / BEF

Details
Type:Airport (Aerodrome, Airfield)
Latitude:11°59'27"N (11.990961)
Longitude:83°46'27"W (-83.774085)
Datum:WGS 1984
Elevation:41 ft (12 m)
Runways:1
Longest:6625 × 98 ft (2019 × 30 m)

Time
Timezone:UTC+28:08 (DST+30:08)
Local Time:

Weather
METAR:MNBL  041400Z 00000KT 9999 BKN017 26/24 Q1014
TAF:MNBL  (expired)

Related Locations
Nearby:
Farthest:CCK: 12411 mi / 19974 km
West Island (Pulau Panjang) [Cocos (Keeling) Islands], CC

Find:

   beyond  
but within

Other Information
Maps:
Sources:

  


 


Great Circle Mapper   Great Circle Mapper
Great Circle Mapper FAQ   Great Circle Mapper FAQ
  Karl's Home Page
KLS˛   KLS˛ Home
   GC on Facebook
Airlines of the World   Airlines of the World
Donate via PayPal


Copyright © 2004-2019, Karl L. Swartz. All rights reserved.
All trademarks mentioned herein belong to their respective owners.

Please see credits for attribution and copyright information.

Karl Swartz <karl@kls2.com>
  Powered by FreeBSD
Valid HTML 4.01!
Labeled with ICRA
hCard Microformat
Geo Microformat